Terminal Aerodrome Forecast
Issued by NWS

Home | Current Version | Previous Version | Text Only | Print | Product List | Glossary On
Versions: 1 2 3 4 5 6 7 8 9 10 11 12 13 14 15
000
FTUS43 KFGF 291127
TAFTVF
TAF
KTVF 291127Z 2912/3012 34004KT 3SM BR BKN008
      TEMPO 2912/2914 1/2SM FG BKN002
     FM291500 34005KT P6SM BKN012
     FM291700 33005KT P6SM BKN025
     FM291900 33006KT P6SM BKN040=

USA.gov is the U.S. government's official web portal to all federal, state and local government web resources and services.